sensor_id;sensor_type;location;lat;lon;timestamp;P1;durP1;ratioP1;P2;durP2;ratioP2
51921;SDS011;37948;53.260;6.394;2022-11-15T00:01:38;22.77;;;16.77;;
51921;SDS011;37948;53.260;6.394;2022-11-15T00:04:04;26.25;;;17.75;;
51921;SDS011;37948;53.260;6.394;2022-11-15T00:06:30;26.60;;;18.05;;
51921;SDS011;37948;53.260;6.394;2022-11-15T00:08:59;24.08;;;17.02;;
51921;SDS011;37948;53.260;6.394;2022-11-15T00:11:25;26.33;;;16.90;;
51921;SDS011;37948;53.260;6.394;2022-11-15T00:13:51;23.02;;;16.02;;
51921;SDS011;37948;53.260;6.394;2022-11-15T00:16:20;25.02;;;17.13;;
51921;SDS011;37948;53.260;6.394;2022-11-15T00:18:45;23.52;;;16.58;;
51921;SDS011;37948;53.260;6.394;2022-11-15T00:21:11;23.30;;;16.60;;
51921;SDS011;37948;53.260;6.394;2022-11-15T00:23:38;25.77;;;16.58;;
51921;SDS011;37948;53.260;6.394;2022-11-15T00:26:04;29.88;;;17.50;;
51921;SDS011;37948;53.260;6.394;2022-11-15T00:28:30;30.02;;;17.05;;
51921;SDS011;37948;53.260;6.394;2022-11-15T00:31:02;24.23;;;17.33;;
51921;SDS011;37948;53.260;6.394;2022-11-15T00:33:29;23.35;;;16.45;;
51921;SDS011;37948;53.260;6.394;2022-11-15T00:36:02;23.38;;;16.45;;
51921;SDS011;37948;53.260;6.394;2022-11-15T00:38:33;23.63;;;16.17;;
51921;SDS011;37948;53.260;6.394;2022-11-15T00:40:59;24.45;;;16.23;;
51921;SDS011;37948;53.260;6.394;2022-11-15T00:43:25;24.20;;;16.80;;
51921;SDS011;37948;53.260;6.394;2022-11-15T00:45:51;26.58;;;17.48;;
51921;SDS011;37948;53.260;6.394;2022-11-15T00:48:17;26.13;;;17.30;;
51921;SDS011;37948;53.260;6.394;2022-11-15T00:50:43;26.92;;;17.75;;
51921;SDS011;37948;53.260;6.394;2022-11-15T00:53:08;26.80;;;16.80;;
51921;SDS011;37948;53.260;6.394;2022-11-15T00:55:34;23.98;;;17.65;;
51921;SDS011;37948;53.260;6.394;2022-11-15T00:57:59;23.92;;;16.98;;
51921;SDS011;37948;53.260;6.394;2022-11-15T01:00:25;25.25;;;17.65;;
51921;SDS011;37948;53.260;6.394;2022-11-15T01:02:50;24.60;;;16.23;;
51921;SDS011;37948;53.260;6.394;2022-11-15T01:05:16;23.17;;;15.73;;
51921;SDS011;37948;53.260;6.394;2022-11-15T01:07:42;23.73;;;17.20;;
51921;SDS011;37948;53.260;6.394;2022-11-15T01:10:07;23.88;;;15.98;;
51921;SDS011;37948;53.260;6.394;2022-11-15T01:12:33;20.90;;;15.70;;
51921;SDS011;37948;53.260;6.394;2022-11-15T01:14:59;23.10;;;16.35;;
51921;SDS011;37948;53.260;6.394;2022-11-15T01:17:24;26.90;;;17.65;;
51921;SDS011;37948;53.260;6.394;2022-11-15T01:19:50;24.05;;;16.95;;
51921;SDS011;37948;53.260;6.394;2022-11-15T01:22:16;23.27;;;16.17;;
51921;SDS011;37948;53.260;6.394;2022-11-15T01:24:42;24.13;;;16.33;;
51921;SDS011;37948;53.260;6.394;2022-11-15T01:27:07;21.98;;;15.57;;
51921;SDS011;37948;53.260;6.394;2022-11-15T01:29:33;24.20;;;16.63;;
51921;SDS011;37948;53.260;6.394;2022-11-15T01:31:59;23.50;;;17.02;;
51921;SDS011;37948;53.260;6.394;2022-11-15T01:34:24;21.60;;;15.75;;
51921;SDS011;37948;53.260;6.394;2022-11-15T01:36:50;24.95;;;16.92;;
51921;SDS011;37948;53.260;6.394;2022-11-15T01:39:16;24.63;;;16.70;;
51921;SDS011;37948;53.260;6.394;2022-11-15T01:41:41;21.90;;;16.48;;
51921;SDS011;37948;53.260;6.394;2022-11-15T01:47:07;21.65;;;16.25;;
51921;SDS011;37948;53.260;6.394;2022-11-15T01:49:37;24.98;;;17.20;;
51921;SDS011;37948;53.260;6.394;2022-11-15T01:52:10;22.58;;;16.75;;
51921;SDS011;37948;53.260;6.394;2022-11-15T01:54:40;21.95;;;16.92;;
51921;SDS011;37948;53.260;6.394;2022-11-15T01:57:09;23.52;;;16.13;;
51921;SDS011;37948;53.260;6.394;2022-11-15T01:59:37;24.85;;;17.33;;
51921;SDS011;37948;53.260;6.394;2022-11-15T02:02:04;29.27;;;18.40;;
51921;SDS011;37948;53.260;6.394;2022-11-15T02:04:34;28.45;;;19.42;;
51921;SDS011;37948;53.260;6.394;2022-11-15T02:07:04;27.10;;;17.85;;
51921;SDS011;37948;53.260;6.394;2022-11-15T02:09:31;24.38;;;18.27;;
51921;SDS011;37948;53.260;6.394;2022-11-15T02:11:57;25.23;;;18.65;;
51921;SDS011;37948;53.260;6.394;2022-11-15T02:14:24;26.70;;;19.08;;
51921;SDS011;37948;53.260;6.394;2022-11-15T02:17:08;27.98;;;19.25;;
51921;SDS011;37948;53.260;6.394;2022-11-15T02:19:56;27.15;;;18.40;;
51921;SDS011;37948;53.260;6.394;2022-11-15T02:22:56;26.55;;;17.90;;
51921;SDS011;37948;53.260;6.394;2022-11-15T02:39:18;24.95;;;17.80;;
51921;SDS011;37948;53.260;6.394;2022-11-15T02:41:54;24.23;;;17.23;;
51921;SDS011;37948;53.260;6.394;2022-11-15T02:44:33;22.50;;;15.75;;
51921;SDS011;37948;53.260;6.394;2022-11-15T02:47:07;24.23;;;16.23;;
51921;SDS011;37948;53.260;6.394;2022-11-15T02:49:40;24.42;;;16.23;;
51921;SDS011;37948;53.260;6.394;2022-11-15T02:52:13;24.35;;;15.70;;
51921;SDS011;37948;53.260;6.394;2022-11-15T02:54:41;24.33;;;16.08;;
51921;SDS011;37948;53.260;6.394;2022-11-15T02:57:07;30.80;;;17.13;;
51921;SDS011;37948;53.260;6.394;2022-11-15T02:59:41;25.42;;;16.67;;
51921;SDS011;37948;53.260;6.394;2022-11-15T03:10:26;27.13;;;16.40;;
51921;SDS011;37948;53.260;6.394;2022-11-15T03:16:15;32.22;;;16.83;;
51921;SDS011;37948;53.260;6.394;2022-11-15T03:19:06;27.70;;;17.27;;
51921;SDS011;37948;53.260;6.394;2022-11-15T03:21:42;28.73;;;17.75;;
51921;SDS011;37948;53.260;6.394;2022-11-15T03:24:09;29.63;;;18.08;;
51921;SDS011;37948;53.260;6.394;2022-11-15T03:26:37;27.58;;;17.33;;
51921;SDS011;37948;53.260;6.394;2022-11-15T03:29:07;29.98;;;17.58;;
51921;SDS011;37948;53.260;6.394;2022-11-15T03:31:40;27.70;;;17.25;;
51921;SDS011;37948;53.260;6.394;2022-11-15T03:34:58;24.55;;;15.88;;
51921;SDS011;37948;53.260;6.394;2022-11-15T03:37:11;28.95;;;18.17;;
51921;SDS011;37948;53.260;6.394;2022-11-15T03:39:39;29.35;;;17.85;;
51921;SDS011;37948;53.260;6.394;2022-11-15T03:45:01;29.98;;;17.30;;
51921;SDS011;37948;53.260;6.394;2022-11-15T03:47:37;31.00;;;17.10;;
51921;SDS011;37948;53.260;6.394;2022-11-15T03:50:13;29.13;;;17.80;;
51921;SDS011;37948;53.260;6.394;2022-11-15T03:52:44;34.65;;;17.95;;
51921;SDS011;37948;53.260;6.394;2022-11-15T03:55:13;35.05;;;18.35;;
51921;SDS011;37948;53.260;6.394;2022-11-15T03:57:42;34.65;;;17.92;;
51921;SDS011;37948;53.260;6.394;2022-11-15T04:00:08;29.50;;;17.85;;
51921;SDS011;37948;53.260;6.394;2022-11-15T04:02:35;32.35;;;18.05;;
51921;SDS011;37948;53.260;6.394;2022-11-15T04:05:00;31.63;;;17.48;;
51921;SDS011;37948;53.260;6.394;2022-11-15T04:07:26;33.08;;;17.40;;
51921;SDS011;37948;53.260;6.394;2022-11-15T04:09:51;38.35;;;18.80;;
51921;SDS011;37948;53.260;6.394;2022-11-15T04:12:34;30.60;;;17.98;;
51921;SDS011;37948;53.260;6.394;2022-11-15T04:15:05;30.90;;;17.58;;
51921;SDS011;37948;53.260;6.394;2022-11-15T04:20:02;31.35;;;18.17;;
51921;SDS011;37948;53.260;6.394;2022-11-15T04:23:14;34.10;;;16.83;;
51921;SDS011;37948;53.260;6.394;2022-11-15T04:26:04;38.67;;;18.58;;
51921;SDS011;37948;53.260;6.394;2022-11-15T04:28:32;34.35;;;18.50;;
51921;SDS011;37948;53.260;6.394;2022-11-15T04:30:57;34.40;;;17.58;;
51921;SDS011;37948;53.260;6.394;2022-11-15T04:33:23;38.42;;;19.00;;
51921;SDS011;37948;53.260;6.394;2022-11-15T04:35:49;34.65;;;18.40;;
51921;SDS011;37948;53.260;6.394;2022-11-15T04:38:34;33.90;;;18.17;;
51921;SDS011;37948;53.260;6.394;2022-11-15T04:41:00;41.42;;;18.75;;
51921;SDS011;37948;53.260;6.394;2022-11-15T04:43:27;32.03;;;17.75;;
51921;SDS011;37948;53.260;6.394;2022-11-15T04:45:53;36.00;;;18.65;;
51921;SDS011;37948;53.260;6.394;2022-11-15T04:48:19;35.33;;;18.08;;
51921;SDS011;37948;53.260;6.394;2022-11-15T04:50:44;41.20;;;19.63;;
51921;SDS011;37948;53.260;6.394;2022-11-15T04:53:12;38.42;;;19.77;;
51921;SDS011;37948;53.260;6.394;2022-11-15T04:55:38;34.28;;;18.65;;
51921;SDS011;37948;53.260;6.394;2022-11-15T04:58:03;32.67;;;16.92;;
51921;SDS011;37948;53.260;6.394;2022-11-15T05:00:29;38.30;;;18.80;;
51921;SDS011;37948;53.260;6.394;2022-11-15T05:02:55;39.65;;;19.35;;
51921;SDS011;37948;53.260;6.394;2022-11-15T05:05:40;37.55;;;18.65;;
51921;SDS011;37948;53.260;6.394;2022-11-15T05:08:06;36.03;;;19.60;;
51921;SDS011;37948;53.260;6.394;2022-11-15T05:10:32;36.38;;;17.70;;
51921;SDS011;37948;53.260;6.394;2022-11-15T05:12:57;34.85;;;17.67;;
51921;SDS011;37948;53.260;6.394;2022-11-15T05:15:23;39.67;;;18.20;;
51921;SDS011;37948;53.260;6.394;2022-11-15T05:17:48;39.80;;;19.60;;
51921;SDS011;37948;53.260;6.394;2022-11-15T05:20:14;43.13;;;19.27;;
51921;SDS011;37948;53.260;6.394;2022-11-15T05:22:39;41.08;;;20.83;;
51921;SDS011;37948;53.260;6.394;2022-11-15T05:25:05;36.92;;;18.75;;
51921;SDS011;37948;53.260;6.394;2022-11-15T05:27:32;40.05;;;19.17;;
51921;SDS011;37948;53.260;6.394;2022-11-15T05:29:58;42.17;;;18.67;;
51921;SDS011;37948;53.260;6.394;2022-11-15T05:32:23;39.60;;;18.73;;
51921;SDS011;37948;53.260;6.394;2022-11-15T05:34:50;41.17;;;19.83;;
51921;SDS011;37948;53.260;6.394;2022-11-15T05:37:16;42.55;;;20.63;;
51921;SDS011;37948;53.260;6.394;2022-11-15T05:39:42;44.40;;;21.60;;
51921;SDS011;37948;53.260;6.394;2022-11-15T05:42:12;44.58;;;21.48;;
51921;SDS011;37948;53.260;6.394;2022-11-15T05:44:40;42.30;;;20.50;;
51921;SDS011;37948;53.260;6.394;2022-11-15T05:47:11;45.47;;;20.88;;
51921;SDS011;37948;53.260;6.394;2022-11-15T05:49:41;51.70;;;22.27;;
51921;SDS011;37948;53.260;6.394;2022-11-15T05:52:10;42.35;;;22.20;;
51921;SDS011;37948;53.260;6.394;2022-11-15T05:54:38;46.75;;;21.90;;
51921;SDS011;37948;53.260;6.394;2022-11-15T05:57:04;57.03;;;23.85;;
51921;SDS011;37948;53.260;6.394;2022-11-15T05:59:30;54.30;;;22.63;;
51921;SDS011;37948;53.260;6.394;2022-11-15T06:01:57;56.92;;;23.15;;
51921;SDS011;37948;53.260;6.394;2022-11-15T06:04:23;49.80;;;23.38;;
51921;SDS011;37948;53.260;6.394;2022-11-15T06:06:49;52.60;;;23.58;;
51921;SDS011;37948;53.260;6.394;2022-11-15T06:09:15;58.92;;;24.63;;
51921;SDS011;37948;53.260;6.394;2022-11-15T06:11:40;47.50;;;22.77;;
51921;SDS011;37948;53.260;6.394;2022-11-15T06:14:06;58.90;;;25.38;;
51921;SDS011;37948;53.260;6.394;2022-11-15T06:16:31;55.15;;;24.20;;
51921;SDS011;37948;53.260;6.394;2022-11-15T06:18:57;61.30;;;24.65;;
51921;SDS011;37948;53.260;6.394;2022-11-15T06:21:23;52.33;;;24.73;;
51921;SDS011;37948;53.260;6.394;2022-11-15T06:23:48;56.90;;;25.33;;
51921;SDS011;37948;53.260;6.394;2022-11-15T06:26:14;64.45;;;25.83;;
51921;SDS011;37948;53.260;6.394;2022-11-15T06:28:39;62.25;;;26.30;;
51921;SDS011;37948;53.260;6.394;2022-11-15T06:31:06;59.47;;;26.17;;
51921;SDS011;37948;53.260;6.394;2022-11-15T06:33:33;63.92;;;24.67;;
51921;SDS011;37948;53.260;6.394;2022-11-15T06:36:06;56.70;;;26.25;;
51921;SDS011;37948;53.260;6.394;2022-11-15T06:38:38;64.97;;;26.70;;
51921;SDS011;37948;53.260;6.394;2022-11-15T06:41:05;64.82;;;26.33;;
51921;SDS011;37948;53.260;6.394;2022-11-15T06:43:32;69.15;;;27.45;;
51921;SDS011;37948;53.260;6.394;2022-11-15T06:45:58;59.97;;;28.23;;
51921;SDS011;37948;53.260;6.394;2022-11-15T06:48:25;65.38;;;25.67;;
51921;SDS011;37948;53.260;6.394;2022-11-15T06:50:54;68.57;;;28.30;;
51921;SDS011;37948;53.260;6.394;2022-11-15T06:53:21;57.22;;;25.92;;
51921;SDS011;37948;53.260;6.394;2022-11-15T06:55:46;65.82;;;30.00;;
51921;SDS011;37948;53.260;6.394;2022-11-15T06:58:12;76.70;;;28.88;;
51921;SDS011;37948;53.260;6.394;2022-11-15T07:00:38;72.80;;;28.73;;
51921;SDS011;37948;53.260;6.394;2022-11-15T07:03:03;72.18;;;29.30;;
51921;SDS011;37948;53.260;6.394;2022-11-15T07:05:29;62.35;;;27.70;;
51921;SDS011;37948;53.260;6.394;2022-11-15T07:07:55;65.50;;;29.25;;
51921;SDS011;37948;53.260;6.394;2022-11-15T07:10:22;66.50;;;28.52;;
51921;SDS011;37948;53.260;6.394;2022-11-15T07:12:50;57.05;;;26.10;;
51921;SDS011;37948;53.260;6.394;2022-11-15T07:15:16;64.43;;;27.38;;
51921;SDS011;37948;53.260;6.394;2022-11-15T07:17:42;68.38;;;28.35;;
51921;SDS011;37948;53.260;6.394;2022-11-15T07:20:08;66.35;;;28.98;;
51921;SDS011;37948;53.260;6.394;2022-11-15T07:22:34;71.85;;;30.00;;
51921;SDS011;37948;53.260;6.394;2022-11-15T07:25:00;73.90;;;29.50;;
51921;SDS011;37948;53.260;6.394;2022-11-15T07:27:25;71.80;;;30.13;;
51921;SDS011;37948;53.260;6.394;2022-11-15T07:29:51;70.10;;;28.75;;
51921;SDS011;37948;53.260;6.394;2022-11-15T07:32:17;82.95;;;30.85;;
51921;SDS011;37948;53.260;6.394;2022-11-15T07:34:42;69.85;;;30.58;;
51921;SDS011;37948;53.260;6.394;2022-11-15T07:37:08;72.47;;;30.92;;
51921;SDS011;37948;53.260;6.394;2022-11-15T07:39:33;66.65;;;28.05;;
51921;SDS011;37948;53.260;6.394;2022-11-15T07:41:59;61.42;;;27.95;;
51921;SDS011;37948;53.260;6.394;2022-11-15T07:44:43;65.15;;;29.48;;
51921;SDS011;37948;53.260;6.394;2022-11-15T07:47:09;59.00;;;29.77;;
51921;SDS011;37948;53.260;6.394;2022-11-15T07:49:34;66.22;;;31.48;;
51921;SDS011;37948;53.260;6.394;2022-11-15T07:52:00;70.50;;;29.52;;
51921;SDS011;37948;53.260;6.394;2022-11-15T07:54:25;77.15;;;31.75;;
51921;SDS011;37948;53.260;6.394;2022-11-15T07:56:51;74.28;;;32.08;;
51921;SDS011;37948;53.260;6.394;2022-11-15T07:59:17;73.07;;;32.47;;
51921;SDS011;37948;53.260;6.394;2022-11-15T08:01:42;85.32;;;37.42;;
51921;SDS011;37948;53.260;6.394;2022-11-15T08:04:09;61.47;;;31.55;;
51921;SDS011;37948;53.260;6.394;2022-11-15T08:06:36;67.65;;;30.70;;
51921;SDS011;37948;53.260;6.394;2022-11-15T08:09:01;64.35;;;29.42;;
51921;SDS011;37948;53.260;6.394;2022-11-15T08:11:27;66.45;;;31.35;;
51921;SDS011;37948;53.260;6.394;2022-11-15T08:13:53;74.10;;;30.05;;
51921;SDS011;37948;53.260;6.394;2022-11-15T08:16:18;67.53;;;29.58;;
51921;SDS011;37948;53.260;6.394;2022-11-15T08:18:44;70.10;;;30.67;;
51921;SDS011;37948;53.260;6.394;2022-11-15T08:21:10;58.45;;;28.67;;
51921;SDS011;37948;53.260;6.394;2022-11-15T08:23:41;61.93;;;28.27;;
51921;SDS011;37948;53.260;6.394;2022-11-15T08:26:08;62.55;;;29.10;;
51921;SDS011;37948;53.260;6.394;2022-11-15T08:28:33;57.25;;;28.63;;
51921;SDS011;37948;53.260;6.394;2022-11-15T08:30:59;65.97;;;30.05;;
51921;SDS011;37948;53.260;6.394;2022-11-15T08:33:25;59.00;;;28.38;;
51921;SDS011;37948;53.260;6.394;2022-11-15T08:35:50;61.75;;;29.23;;
51921;SDS011;37948;53.260;6.394;2022-11-15T08:38:16;62.97;;;28.80;;
51921;SDS011;37948;53.260;6.394;2022-11-15T08:40:41;62.33;;;29.52;;
51921;SDS011;37948;53.260;6.394;2022-11-15T08:43:07;58.33;;;28.95;;
51921;SDS011;37948;53.260;6.394;2022-11-15T08:45:33;56.55;;;27.38;;
51921;SDS011;37948;53.260;6.394;2022-11-15T08:48:00;54.60;;;28.50;;
51921;SDS011;37948;53.260;6.394;2022-11-15T08:50:26;57.85;;;27.35;;
51921;SDS011;37948;53.260;6.394;2022-11-15T08:52:52;59.33;;;27.95;;
51921;SDS011;37948;53.260;6.394;2022-11-15T08:55:17;57.50;;;26.95;;
51921;SDS011;37948;53.260;6.394;2022-11-15T08:57:43;53.60;;;27.02;;
51921;SDS011;37948;53.260;6.394;2022-11-15T09:00:09;53.45;;;27.50;;
51921;SDS011;37948;53.260;6.394;2022-11-15T09:02:37;56.05;;;27.17;;
51921;SDS011;37948;53.260;6.394;2022-11-15T09:05:03;53.60;;;26.15;;
51921;SDS011;37948;53.260;6.394;2022-11-15T09:07:29;50.47;;;24.67;;
51921;SDS011;37948;53.260;6.394;2022-11-15T09:09:56;53.50;;;26.67;;
51921;SDS011;37948;53.260;6.394;2022-11-15T09:12:22;50.03;;;25.45;;
51921;SDS011;37948;53.260;6.394;2022-11-15T09:14:48;46.45;;;23.42;;
51921;SDS011;37948;53.260;6.394;2022-11-15T09:17:14;41.03;;;24.70;;
51921;SDS011;37948;53.260;6.394;2022-11-15T09:19:39;45.83;;;24.10;;
51921;SDS011;37948;53.260;6.394;2022-11-15T09:22:06;44.95;;;25.00;;
51921;SDS011;37948;53.260;6.394;2022-11-15T09:24:32;52.47;;;24.67;;
51921;SDS011;37948;53.260;6.394;2022-11-15T09:26:57;46.85;;;23.50;;
51921;SDS011;37948;53.260;6.394;2022-11-15T09:29:23;48.05;;;24.17;;
51921;SDS011;37948;53.260;6.394;2022-11-15T09:31:48;45.63;;;22.52;;
51921;SDS011;37948;53.260;6.394;2022-11-15T09:34:17;41.75;;;21.98;;
51921;SDS011;37948;53.260;6.394;2022-11-15T09:36:42;38.92;;;22.02;;
51921;SDS011;37948;53.260;6.394;2022-11-15T09:39:08;39.10;;;23.00;;
51921;SDS011;37948;53.260;6.394;2022-11-15T09:41:48;36.58;;;21.90;;
51921;SDS011;37948;53.260;6.394;2022-11-15T09:49:27;35.80;;;20.17;;
51921;SDS011;37948;53.260;6.394;2022-11-15T09:51:55;41.22;;;22.48;;
51921;SDS011;37948;53.260;6.394;2022-11-15T09:57:09;37.40;;;20.80;;
51921;SDS011;37948;53.260;6.394;2022-11-15T10:05:37;43.97;;;21.27;;
51921;SDS011;37948;53.260;6.394;2022-11-15T10:08:20;32.38;;;19.40;;
51921;SDS011;37948;53.260;6.394;2022-11-15T10:10:57;38.30;;;21.15;;
51921;SDS011;37948;53.260;6.394;2022-11-15T10:13:29;32.15;;;19.48;;
51921;SDS011;37948;53.260;6.394;2022-11-15T10:16:04;35.40;;;20.67;;
51921;SDS011;37948;53.260;6.394;2022-11-15T10:21:37;27.38;;;18.50;;
51921;SDS011;37948;53.260;6.394;2022-11-15T10:24:22;35.17;;;18.98;;
51921;SDS011;37948;53.260;6.394;2022-11-15T10:26:54;34.60;;;18.75;;
51921;SDS011;37948;53.260;6.394;2022-11-15T10:29:21;28.88;;;18.60;;
51921;SDS011;37948;53.260;6.394;2022-11-15T10:31:48;28.98;;;18.15;;
51921;SDS011;37948;53.260;6.394;2022-11-15T10:34:15;25.38;;;17.10;;
51921;SDS011;37948;53.260;6.394;2022-11-15T10:36:44;34.75;;;18.23;;
51921;SDS011;37948;53.260;6.394;2022-11-15T10:39:12;28.33;;;17.48;;
51921;SDS011;37948;53.260;6.394;2022-11-15T10:41:39;34.88;;;16.67;;
51921;SDS011;37948;53.260;6.394;2022-11-15T10:46:32;25.08;;;16.20;;
51921;SDS011;37948;53.260;6.394;2022-11-15T10:54:30;27.08;;;17.45;;
51921;SDS011;37948;53.260;6.394;2022-11-15T10:57:06;25.27;;;15.93;;
51921;SDS011;37948;53.260;6.394;2022-11-15T10:59:42;24.92;;;16.40;;
51921;SDS011;37948;53.260;6.394;2022-11-15T11:04:58;24.13;;;15.68;;
51921;SDS011;37948;53.260;6.394;2022-11-15T11:07:26;24.45;;;15.35;;
51921;SDS011;37948;53.260;6.394;2022-11-15T11:09:58;26.27;;;16.23;;
51921;SDS011;37948;53.260;6.394;2022-11-15T11:14:55;26.45;;;14.75;;
51921;SDS011;37948;53.260;6.394;2022-11-15T11:17:35;22.02;;;14.18;;
51921;SDS011;37948;53.260;6.394;2022-11-15T11:20:38;24.55;;;14.55;;
51921;SDS011;37948;53.260;6.394;2022-11-15T11:23:29;20.75;;;13.80;;
51921;SDS011;37948;53.260;6.394;2022-11-15T11:31:49;21.35;;;12.82;;
51921;SDS011;37948;53.260;6.394;2022-11-15T11:34:34;17.38;;;11.88;;
51921;SDS011;37948;53.260;6.394;2022-11-15T11:37:26;23.15;;;12.93;;
51921;SDS011;37948;53.260;6.394;2022-11-15T11:42:54;23.10;;;12.93;;
51921;SDS011;37948;53.260;6.394;2022-11-15T11:48:12;16.98;;;12.15;;
51921;SDS011;37948;53.260;6.394;2022-11-15T11:50:42;17.10;;;11.13;;
51921;SDS011;37948;53.260;6.394;2022-11-15T11:53:25;19.08;;;11.88;;
51921;SDS011;37948;53.260;6.394;2022-11-15T11:55:57;16.30;;;10.30;;
51921;SDS011;37948;53.260;6.394;2022-11-15T11:58:43;15.13;;;9.20;;
51921;SDS011;37948;53.260;6.394;2022-11-15T12:03:40;15.10;;;8.55;;
51921;SDS011;37948;53.260;6.394;2022-11-15T12:11:35;12.68;;;6.93;;
51921;SDS011;37948;53.260;6.394;2022-11-15T12:14:11;13.60;;;6.30;;
51921;SDS011;37948;53.260;6.394;2022-11-15T12:16:46;13.85;;;7.53;;
51921;SDS011;37948;53.260;6.394;2022-11-15T12:19:11;10.32;;;5.47;;
51921;SDS011;37948;53.260;6.394;2022-11-15T12:21:51;8.75;;;4.85;;
51921;SDS011;37948;53.260;6.394;2022-11-15T12:24:55;8.98;;;6.00;;
51921;SDS011;37948;53.260;6.394;2022-11-15T12:27:30;10.35;;;5.68;;
51921;SDS011;37948;53.260;6.394;2022-11-15T12:30:13;9.68;;;5.22;;
51921;SDS011;37948;53.260;6.394;2022-11-15T12:32:49;9.27;;;5.30;;
51921;SDS011;37948;53.260;6.394;2022-11-15T12:35:24;12.05;;;5.68;;
51921;SDS011;37948;53.260;6.394;2022-11-15T12:37:51;5.95;;;4.45;;
51921;SDS011;37948;53.260;6.394;2022-11-15T12:40:22;8.23;;;5.43;;
51921;SDS011;37948;53.260;6.394;2022-11-15T12:45:39;14.48;;;3.55;;
51921;SDS011;37948;53.260;6.394;2022-11-15T12:56:04;9.65;;;2.72;;
51921;SDS011;37948;53.260;6.394;2022-11-15T12:58:41;5.60;;;1.95;;
51921;SDS011;37948;53.260;6.394;2022-11-15T13:01:08;4.97;;;2.25;;
51921;SDS011;37948;53.260;6.394;2022-11-15T13:06:45;5.75;;;2.60;;
51921;SDS011;37948;53.260;6.394;2022-11-15T13:17:02;4.38;;;2.78;;
51921;SDS011;37948;53.260;6.394;2022-11-15T13:19:48;4.18;;;2.42;;
51921;SDS011;37948;53.260;6.394;2022-11-15T13:22:17;4.43;;;2.45;;
51921;SDS011;37948;53.260;6.394;2022-11-15T13:25:02;3.63;;;2.40;;
51921;SDS011;37948;53.260;6.394;2022-11-15T13:27:27;8.13;;;2.70;;
51921;SDS011;37948;53.260;6.394;2022-11-15T13:29:54;4.38;;;2.53;;
51921;SDS011;37948;53.260;6.394;2022-11-15T13:32:20;4.68;;;2.40;;
51921;SDS011;37948;53.260;6.394;2022-11-15T13:34:46;5.30;;;2.90;;
51921;SDS011;37948;53.260;6.394;2022-11-15T13:37:31;5.30;;;2.88;;
51921;SDS011;37948;53.260;6.394;2022-11-15T13:42:48;4.50;;;2.58;;
51921;SDS011;37948;53.260;6.394;2022-11-15T13:45:15;4.32;;;2.92;;
51921;SDS011;37948;53.260;6.394;2022-11-15T13:47:42;6.32;;;2.72;;
51921;SDS011;37948;53.260;6.394;2022-11-15T13:50:10;6.63;;;2.67;;
51921;SDS011;37948;53.260;6.394;2022-11-15T13:52:37;5.07;;;2.70;;
51921;SDS011;37948;53.260;6.394;2022-11-15T13:55:12;6.30;;;2.50;;
51921;SDS011;37948;53.260;6.394;2022-11-15T14:02:49;6.13;;;4.05;;
51921;SDS011;37948;53.260;6.394;2022-11-15T14:05:19;8.73;;;3.72;;
51921;SDS011;37948;53.260;6.394;2022-11-15T14:07:53;5.93;;;4.07;;
51921;SDS011;37948;53.260;6.394;2022-11-15T14:10:28;5.60;;;4.10;;
51921;SDS011;37948;53.260;6.394;2022-11-15T14:12:58;4.43;;;3.38;;
51921;SDS011;37948;53.260;6.394;2022-11-15T14:15:34;5.63;;;3.60;;
51921;SDS011;37948;53.260;6.394;2022-11-15T14:18:01;5.22;;;3.10;;
51921;SDS011;37948;53.260;6.394;2022-11-15T14:20:32;4.03;;;3.20;;
51921;SDS011;37948;53.260;6.394;2022-11-15T14:23:04;3.83;;;2.55;;
51921;SDS011;37948;53.260;6.394;2022-11-15T14:25:51;5.72;;;2.90;;
51921;SDS011;37948;53.260;6.394;2022-11-15T14:30:54;4.60;;;2.45;;
51921;SDS011;37948;53.260;6.394;2022-11-15T14:35:50;6.47;;;2.78;;
51921;SDS011;37948;53.260;6.394;2022-11-15T14:38:16;3.33;;;2.47;;
51921;SDS011;37948;53.260;6.394;2022-11-15T14:40:42;2.90;;;2.42;;
51921;SDS011;37948;53.260;6.394;2022-11-15T14:43:09;5.93;;;2.67;;
51921;SDS011;37948;53.260;6.394;2022-11-15T14:45:36;4.47;;;2.85;;
51921;SDS011;37948;53.260;6.394;2022-11-15T14:48:02;3.33;;;2.65;;
51921;SDS011;37948;53.260;6.394;2022-11-15T14:50:28;6.30;;;3.60;;
51921;SDS011;37948;53.260;6.394;2022-11-15T14:52:53;4.32;;;2.88;;
51921;SDS011;37948;53.260;6.394;2022-11-15T14:55:23;4.38;;;3.15;;
51921;SDS011;37948;53.260;6.394;2022-11-15T14:57:50;5.63;;;2.65;;
51921;SDS011;37948;53.260;6.394;2022-11-15T15:00:17;3.38;;;2.83;;
51921;SDS011;37948;53.260;6.394;2022-11-15T15:02:44;6.50;;;3.03;;
51921;SDS011;37948;53.260;6.394;2022-11-15T15:05:22;5.07;;;2.80;;
51921;SDS011;37948;53.260;6.394;2022-11-15T15:07:49;3.78;;;2.70;;
51921;SDS011;37948;53.260;6.394;2022-11-15T15:10:19;4.30;;;2.58;;
51921;SDS011;37948;53.260;6.394;2022-11-15T15:12:45;8.35;;;2.28;;
51921;SDS011;37948;53.260;6.394;2022-11-15T15:15:15;2.42;;;2.17;;
51921;SDS011;37948;53.260;6.394;2022-11-15T15:17:44;6.38;;;2.35;;
51921;SDS011;37948;53.260;6.394;2022-11-15T15:20:10;2.05;;;1.75;;
51921;SDS011;37948;53.260;6.394;2022-11-15T15:22:36;2.72;;;1.60;;
51921;SDS011;37948;53.260;6.394;2022-11-15T15:25:02;1.90;;;1.50;;
51921;SDS011;37948;53.260;6.394;2022-11-15T15:27:33;3.17;;;1.42;;
51921;SDS011;37948;53.260;6.394;2022-11-15T15:29:59;3.55;;;1.80;;
51921;SDS011;37948;53.260;6.394;2022-11-15T15:32:24;3.22;;;2.17;;
51921;SDS011;37948;53.260;6.394;2022-11-15T15:34:50;2.08;;;1.70;;
51921;SDS011;37948;53.260;6.394;2022-11-15T15:37:21;3.05;;;1.75;;
51921;SDS011;37948;53.260;6.394;2022-11-15T15:39:51;3.03;;;1.67;;
51921;SDS011;37948;53.260;6.394;2022-11-15T15:42:18;2.22;;;1.33;;
51921;SDS011;37948;53.260;6.394;2022-11-15T15:44:44;4.47;;;1.58;;
51921;SDS011;37948;53.260;6.394;2022-11-15T15:47:13;2.58;;;2.00;;
51921;SDS011;37948;53.260;6.394;2022-11-15T15:49:49;5.63;;;2.20;;
51921;SDS011;37948;53.260;6.394;2022-11-15T15:52:15;2.65;;;2.33;;
51921;SDS011;37948;53.260;6.394;2022-11-15T15:54:41;2.90;;;2.50;;
51921;SDS011;37948;53.260;6.394;2022-11-15T15:57:07;4.03;;;2.85;;
51921;SDS011;37948;53.260;6.394;2022-11-15T15:59:36;3.50;;;2.97;;
51921;SDS011;37948;53.260;6.394;2022-11-15T16:02:02;8.18;;;4.10;;
51921;SDS011;37948;53.260;6.394;2022-11-15T16:04:27;3.83;;;3.53;;
51921;SDS011;37948;53.260;6.394;2022-11-15T16:06:57;6.40;;;4.68;;
51921;SDS011;37948;53.260;6.394;2022-11-15T16:09:26;4.93;;;4.28;;
51921;SDS011;37948;53.260;6.394;2022-11-15T16:12:11;7.65;;;4.10;;
51921;SDS011;37948;53.260;6.394;2022-11-15T16:14:36;4.88;;;4.30;;
51921;SDS011;37948;53.260;6.394;2022-11-15T16:17:02;5.20;;;3.70;;
51921;SDS011;37948;53.260;6.394;2022-11-15T16:19:28;5.25;;;4.10;;
51921;SDS011;37948;53.260;6.394;2022-11-15T16:21:54;7.47;;;5.03;;
51921;SDS011;37948;53.260;6.394;2022-11-15T16:24:20;4.65;;;4.10;;
51921;SDS011;37948;53.260;6.394;2022-11-15T16:26:46;7.10;;;5.43;;
51921;SDS011;37948;53.260;6.394;2022-11-15T16:29:13;8.93;;;6.03;;
51921;SDS011;37948;53.260;6.394;2022-11-15T16:31:39;9.52;;;6.30;;
51921;SDS011;37948;53.260;6.394;2022-11-15T16:34:04;9.75;;;5.60;;
51921;SDS011;37948;53.260;6.394;2022-11-15T16:36:32;5.88;;;5.03;;
51921;SDS011;37948;53.260;6.394;2022-11-15T16:38:59;5.72;;;5.22;;